createdAt,value
2024-02-24T00:01:51.878Z,11.88
2024-02-24T00:04:18.545Z,11.27
2024-02-24T00:06:45.134Z,11.50
2024-02-24T00:09:11.698Z,11.73
2024-02-24T00:11:39.805Z,11.27
2024-02-24T00:14:06.664Z,15.35
2024-02-24T00:16:33.392Z,12.90
2024-02-24T00:19:00.283Z,12.90
2024-02-24T00:21:27.250Z,14.00
2024-02-24T00:23:53.903Z,12.30
2024-02-24T00:26:20.536Z,12.88
2024-02-24T00:28:48.430Z,12.80
2024-02-24T00:31:14.995Z,13.27
2024-02-24T00:33:42.429Z,11.85
2024-02-24T00:36:09.620Z,10.65
2024-02-24T00:38:36.493Z,9.50
2024-02-24T00:41:03.223Z,10.50
2024-02-24T00:43:29.956Z,9.60
2024-02-24T00:45:57.986Z,9.65
2024-02-24T00:48:24.966Z,10.23
2024-02-24T00:50:51.542Z,9.63
2024-02-24T00:53:18.164Z,11.00
2024-02-24T00:55:44.744Z,11.47
2024-02-24T00:58:11.403Z,12.00
2024-02-24T01:00:38.074Z,12.63
2024-02-24T01:03:06.149Z,11.98
2024-02-24T01:05:32.935Z,12.60
2024-02-24T01:07:59.520Z,10.17
2024-02-24T01:10:26.370Z,10.48
2024-02-24T01:12:53.253Z,11.35
2024-02-24T01:15:20.101Z,10.88
2024-02-24T01:17:46.823Z,11.00
2024-02-24T01:20:15.140Z,10.17
2024-02-24T01:22:41.725Z,10.77
2024-02-24T01:25:08.616Z,11.85
2024-02-24T01:27:35.224Z,10.48
2024-02-24T01:30:01.915Z,11.85
2024-02-24T01:32:28.684Z,11.17
2024-02-24T01:34:55.338Z,10.75
2024-02-24T01:37:23.393Z,11.23
2024-02-24T01:39:50.109Z,10.63
2024-02-24T01:42:16.770Z,9.77
2024-02-24T01:44:43.590Z,10.50
2024-02-24T01:47:10.494Z,10.77
2024-02-24T01:49:39.583Z,12.55
2024-02-24T01:52:07.113Z,13.18
2024-02-24T01:54:37.022Z,12.45
2024-02-24T01:57:05.068Z,13.53
2024-02-24T01:59:33.045Z,11.73
2024-02-24T02:01:59.702Z,11.57
2024-02-24T02:04:26.797Z,12.38
2024-02-24T02:06:53.542Z,12.63
2024-02-24T02:09:20.114Z,12.20
2024-02-24T02:11:56.502Z,12.90
2024-02-24T02:14:29.857Z,12.20
2024-02-24T02:16:56.457Z,11.70
2024-02-24T02:19:23.131Z,11.48
2024-02-24T02:21:51.839Z,10.93
2024-02-24T02:24:19.846Z,12.43
2024-02-24T02:26:46.541Z,12.50
2024-02-24T02:29:15.883Z,13.13
2024-02-24T02:31:42.480Z,12.43
2024-02-24T02:34:09.189Z,13.00
2024-02-24T02:36:36.290Z,11.73
2024-02-24T02:39:03.378Z,12.95
2024-02-24T02:41:31.531Z,11.40
2024-02-24T02:43:58.155Z,12.27
2024-02-24T02:46:24.680Z,12.00
2024-02-24T02:48:51.476Z,12.75
2024-02-24T02:51:18.114Z,12.80
2024-02-24T02:53:45.577Z,11.05
2024-02-24T02:56:13.368Z,12.48
2024-02-24T02:58:44.457Z,11.10
2024-02-24T03:01:11.185Z,12.55
2024-02-24T03:03:37.918Z,11.50
2024-02-24T03:06:05.160Z,11.77
2024-02-24T03:08:31.925Z,12.05
2024-02-24T03:10:58.662Z,10.73
2024-02-24T03:13:25.400Z,12.05
2024-02-24T03:15:53.354Z,12.75
2024-02-24T03:18:20.089Z,12.05
2024-02-24T03:20:46.785Z,10.85
2024-02-24T03:23:14.907Z,11.27
2024-02-24T03:25:41.507Z,11.88
2024-02-24T03:28:08.075Z,11.27
2024-02-24T03:30:34.644Z,15.15
2024-02-24T03:33:02.704Z,14.52
2024-02-24T03:35:29.362Z,15.07
2024-02-24T03:37:55.940Z,13.65
2024-02-24T03:40:22.555Z,14.40
2024-02-24T03:42:49.129Z,14.82
2024-02-24T03:45:16.578Z,13.70
2024-02-24T03:47:43.406Z,11.10
2024-02-24T03:50:11.639Z,13.68
2024-02-24T03:52:38.345Z,13.68
2024-02-24T03:55:05.498Z,12.75
2024-02-24T03:57:32.140Z,11.35
2024-02-24T03:59:58.869Z,11.57
2024-02-24T04:02:25.571Z,13.32
2024-02-24T04:04:52.229Z,10.90
2024-02-24T04:07:20.121Z,10.68
2024-02-24T04:09:46.707Z,12.05
2024-02-24T04:12:13.699Z,12.00
2024-02-24T04:14:40.336Z,10.98
2024-02-24T04:17:07.213Z,12.07
2024-02-24T04:19:33.811Z,11.27
2024-02-24T04:22:00.388Z,12.55
2024-02-24T04:24:28.591Z,11.40
2024-02-24T04:26:58.031Z,12.25
2024-02-24T04:29:24.651Z,12.32
2024-02-24T04:31:51.256Z,10.65
2024-02-24T04:34:18.042Z,10.93
2024-02-24T04:36:44.617Z,12.23
2024-02-24T04:39:11.211Z,10.48
2024-02-24T04:41:39.270Z,13.90
2024-02-24T04:44:05.972Z,12.52
2024-02-24T04:46:32.532Z,11.10
2024-02-24T04:48:59.171Z,11.63
2024-02-24T04:51:25.812Z,13.18
2024-02-24T04:53:52.445Z,13.15
2024-02-24T04:56:19.151Z,11.35
2024-02-24T04:58:47.200Z,12.55
2024-02-24T05:01:13.849Z,10.83
2024-02-24T05:03:40.474Z,12.00
2024-02-24T05:06:07.305Z,11.40
2024-02-24T05:08:34.023Z,11.27
2024-02-24T05:11:00.617Z,10.50
2024-02-24T05:13:27.384Z,10.37
2024-02-24T05:15:55.330Z,11.68
2024-02-24T05:18:22.024Z,11.73
2024-02-24T05:20:48.741Z,11.40
2024-02-24T05:23:15.462Z,12.18
2024-02-24T05:25:42.113Z,10.23
2024-02-24T05:28:08.730Z,10.70
2024-02-24T05:30:35.406Z,11.95
2024-02-24T05:33:04.120Z,10.55
2024-02-24T05:35:30.788Z,14.25
2024-02-24T05:37:57.370Z,10.07
2024-02-24T05:40:24.022Z,12.63
2024-02-24T05:42:50.660Z,12.38
2024-02-24T05:45:17.571Z,11.13
2024-02-24T05:47:44.320Z,11.10
2024-02-24T05:50:12.826Z,14.00
2024-02-24T05:52:39.641Z,10.77
2024-02-24T05:55:08.573Z,13.25
2024-02-24T05:57:35.484Z,10.77
2024-02-24T06:00:03.250Z,11.45
2024-02-24T06:02:29.928Z,11.57
2024-02-24T06:04:56.792Z,10.75
2024-02-24T06:07:24.731Z,12.50
2024-02-24T06:09:51.299Z,13.70
2024-02-24T06:12:18.150Z,14.70
2024-02-24T06:14:44.935Z,16.83
2024-02-24T06:17:11.554Z,14.30
2024-02-24T06:19:38.194Z,12.82
2024-02-24T06:22:04.792Z,13.98
2024-02-24T06:24:32.734Z,12.70
2024-02-24T06:26:59.450Z,14.30
2024-02-24T06:29:26.080Z,13.93
2024-02-24T06:31:52.778Z,13.20
2024-02-24T06:34:19.609Z,11.95
2024-02-24T06:36:46.242Z,11.90
2024-02-24T06:39:12.901Z,13.20
2024-02-24T06:41:41.124Z,14.80
2024-02-24T06:44:07.896Z,13.32
2024-02-24T06:46:34.529Z,11.60
2024-02-24T06:49:01.464Z,11.38
2024-02-24T06:51:28.165Z,10.97
2024-02-24T06:53:54.885Z,12.75
2024-02-24T06:56:22.260Z,12.88
2024-02-24T06:58:50.814Z,14.07
2024-02-24T07:01:21.756Z,11.98
2024-02-24T07:03:48.609Z,11.43
2024-02-24T07:06:15.372Z,12.40
2024-02-24T07:08:42.094Z,10.20
2024-02-24T07:11:08.919Z,11.30
2024-02-24T07:13:35.557Z,11.82
2024-02-24T07:16:03.821Z,23.77
2024-02-24T07:18:30.699Z,14.48
2024-02-24T07:20:58.442Z,23.00
2024-02-24T07:23:26.081Z,34.42
2024-02-24T07:25:52.821Z,36.72
2024-02-24T07:28:22.446Z,10.87
2024-02-24T07:30:49.424Z,10.02
2024-02-24T07:33:17.599Z,10.25
2024-02-24T07:35:44.308Z,9.02
2024-02-24T07:38:12.076Z,9.60
2024-02-24T07:40:38.842Z,8.40
2024-02-24T07:43:05.513Z,10.40
2024-02-24T07:45:32.133Z,8.15
2024-02-24T07:48:18.066Z,7.75
2024-02-24T07:50:44.928Z,7.80
2024-02-24T07:53:29.491Z,9.30
2024-02-24T07:55:56.451Z,9.93
2024-02-24T07:58:31.783Z,9.27
2024-02-24T08:00:58.794Z,7.03
2024-02-24T08:03:26.851Z,9.15
2024-02-24T08:05:53.499Z,7.03
2024-02-24T08:08:22.105Z,7.80
2024-02-24T08:10:48.908Z,7.95
2024-02-24T08:13:15.477Z,7.10
2024-02-24T08:15:42.821Z,7.57
2024-02-24T08:18:10.757Z,9.93
2024-02-24T08:20:38.829Z,9.82
2024-02-24T08:23:05.419Z,8.82
2024-02-24T08:25:31.974Z,9.52
2024-02-24T08:27:58.637Z,7.45
2024-02-24T08:30:25.321Z,8.43
2024-02-24T08:32:52.208Z,8.10
2024-02-24T08:35:19.308Z,8.50
2024-02-24T08:37:47.375Z,7.85
2024-02-24T08:40:14.405Z,6.13
2024-02-24T08:42:41.223Z,6.40
2024-02-24T08:45:08.123Z,6.43
2024-02-24T08:47:38.222Z,7.53
2024-02-24T08:50:06.260Z,7.10
2024-02-24T08:52:38.717Z,7.10
2024-02-24T08:55:14.279Z,7.40
2024-02-24T08:57:40.972Z,7.05
2024-02-24T09:00:08.918Z,5.80
2024-02-24T09:02:35.498Z,5.43
2024-02-24T09:05:02.105Z,6.25
2024-02-24T09:07:28.798Z,5.93
2024-02-24T09:09:56.334Z,5.60
2024-02-24T09:12:25.315Z,6.35
2024-02-24T09:14:51.985Z,5.97
2024-02-24T09:17:18.654Z,6.20
2024-02-24T09:19:46.189Z,5.30
2024-02-24T09:22:13.447Z,6.13
2024-02-24T09:24:40.306Z,5.15
2024-02-24T09:27:11.853Z,5.20
2024-02-24T09:29:39.937Z,5.32
2024-02-24T09:32:22.607Z,4.93
2024-02-24T09:34:49.742Z,5.03
2024-02-24T09:37:21.321Z,4.97
2024-02-24T09:39:49.337Z,5.35
2024-02-24T09:42:15.923Z,4.93
2024-02-24T09:45:13.988Z,5.33
2024-02-24T09:47:41.852Z,5.55
2024-02-24T09:50:09.640Z,4.97
2024-02-24T09:52:36.364Z,5.20
2024-02-24T09:55:04.526Z,4.93
2024-02-24T09:57:38.202Z,4.60
2024-02-24T10:00:07.618Z,5.35
2024-02-24T10:02:34.512Z,5.25
2024-02-24T10:05:03.715Z,6.18
2024-02-24T10:07:32.660Z,4.65
2024-02-24T10:09:59.326Z,4.37
2024-02-24T10:12:26.022Z,4.70
2024-02-24T10:14:54.818Z,5.07
2024-02-24T10:17:23.052Z,4.72
2024-02-24T10:19:53.679Z,5.55
2024-02-24T10:22:20.355Z,4.60
2024-02-24T10:24:47.073Z,4.50
2024-02-24T10:27:16.890Z,4.85
2024-02-24T10:29:51.313Z,5.00
2024-02-24T10:32:19.450Z,6.63
2024-02-24T10:34:48.610Z,5.00
2024-02-24T10:37:16.821Z,9.05
2024-02-24T10:39:50.436Z,5.82
2024-02-24T10:42:18.198Z,6.38
2024-02-24T10:44:45.464Z,7.47
2024-02-24T10:47:14.692Z,5.27
2024-02-24T10:49:44.121Z,4.50
2024-02-24T10:52:15.178Z,4.65
2024-02-24T10:54:45.856Z,4.60
2024-02-24T10:57:15.410Z,5.00
2024-02-24T10:59:44.496Z,4.17
2024-02-24T11:02:15.601Z,4.20
2024-02-24T11:04:44.613Z,5.45
2024-02-24T11:07:18.777Z,5.47
2024-02-24T11:09:48.525Z,4.80
2024-02-24T11:12:15.681Z,5.00
2024-02-24T11:14:44.056Z,5.30
2024-02-24T11:17:11.713Z,4.80
2024-02-24T11:19:45.738Z,5.45
2024-02-24T11:22:20.873Z,4.78
2024-02-24T11:25:02.788Z,4.47
2024-02-24T11:27:30.091Z,4.70
2024-02-24T11:30:08.805Z,5.00
2024-02-24T11:32:38.407Z,4.70
2024-02-24T11:35:05.814Z,4.85
2024-02-24T11:37:42.850Z,4.77
2024-02-24T11:40:12.769Z,4.70
2024-02-24T11:42:40.514Z,4.68
2024-02-24T11:45:09.355Z,4.50
2024-02-24T11:47:36.059Z,5.35
2024-02-24T11:50:02.897Z,6.70
2024-02-24T11:52:29.821Z,6.03
2024-02-24T11:54:57.892Z,5.00
2024-02-24T11:57:25.402Z,6.53
2024-02-24T11:59:52.366Z,5.03
2024-02-24T12:02:19.119Z,4.93
2024-02-24T12:04:46.082Z,6.15
2024-02-24T12:07:13.059Z,4.70
2024-02-24T12:09:40.288Z,5.30
2024-02-24T12:12:08.900Z,4.97
2024-02-24T12:14:36.293Z,5.13
2024-02-24T12:17:02.983Z,4.70
2024-02-24T12:19:34.014Z,5.47
2024-02-24T12:22:00.795Z,4.75
2024-02-24T12:24:28.734Z,4.90
2024-02-24T12:26:59.758Z,5.10
2024-02-24T12:29:28.792Z,4.65
2024-02-24T12:31:59.100Z,4.70
2024-02-24T12:34:26.467Z,4.75
2024-02-24T12:36:56.667Z,4.60
2024-02-24T12:39:23.687Z,5.00
2024-02-24T12:41:51.067Z,4.72
2024-02-24T12:44:18.012Z,4.80
2024-02-24T12:46:46.558Z,4.40
2024-02-24T12:49:13.404Z,4.68
2024-02-24T12:51:51.304Z,6.83
2024-02-24T12:54:20.400Z,6.30
2024-02-24T12:56:47.075Z,5.80
2024-02-24T12:59:13.896Z,4.60
2024-02-24T13:01:40.870Z,5.35
2024-02-24T13:04:09.006Z,4.93
2024-02-24T13:06:35.927Z,5.40
2024-02-24T13:09:02.783Z,4.85
2024-02-24T13:11:29.614Z,4.35
2024-02-24T13:13:56.307Z,5.32
2024-02-24T13:16:23.264Z,4.67
2024-02-24T13:18:50.320Z,4.50
2024-02-24T13:21:18.554Z,4.60
2024-02-24T13:23:48.172Z,4.78
2024-02-24T13:26:15.015Z,4.70
2024-02-24T13:28:42.045Z,4.70
2024-02-24T13:31:08.694Z,4.90
2024-02-24T13:33:35.967Z,4.90
2024-02-24T13:36:03.260Z,4.70
2024-02-24T13:38:31.659Z,5.70
2024-02-24T13:41:01.262Z,5.43
2024-02-24T13:43:28.105Z,4.90
2024-02-24T13:45:55.305Z,5.30
2024-02-24T13:48:22.312Z,5.22
2024-02-24T13:50:49.180Z,4.90
2024-02-24T13:53:15.924Z,6.33
2024-02-24T13:55:44.077Z,5.40
2024-02-24T13:58:11.741Z,4.72
2024-02-24T14:00:38.974Z,4.45
2024-02-24T14:03:05.811Z,4.68
2024-02-24T14:05:32.801Z,4.80
2024-02-24T14:08:00.333Z,4.93
2024-02-24T14:10:26.961Z,5.15
2024-02-24T14:12:55.056Z,5.50
2024-02-24T14:15:21.717Z,4.90
2024-02-24T14:17:48.627Z,4.13
2024-02-24T14:20:23.000Z,4.60
2024-02-24T14:22:57.230Z,4.82
2024-02-24T14:25:23.959Z,4.32
2024-02-24T14:27:51.404Z,4.85
2024-02-24T14:30:19.781Z,5.40
2024-02-24T14:32:46.555Z,5.13
2024-02-24T14:35:14.601Z,5.20
2024-02-24T14:37:41.665Z,5.38
2024-02-24T14:40:09.221Z,5.93
2024-02-24T14:42:36.712Z,8.43
2024-02-24T14:45:04.114Z,5.60
2024-02-24T14:47:33.113Z,4.90
2024-02-24T14:50:00.015Z,5.05
2024-02-24T14:52:26.637Z,6.45
2024-02-24T14:54:53.474Z,4.70
2024-02-24T14:57:20.429Z,5.13
2024-02-24T14:59:50.527Z,5.70
2024-02-24T15:02:29.977Z,5.40
2024-02-24T15:05:06.250Z,5.63
2024-02-24T15:07:32.930Z,6.20
2024-02-24T15:09:59.723Z,10.63
2024-02-24T15:12:26.776Z,5.53
2024-02-24T15:14:53.503Z,5.72
2024-02-24T15:17:20.273Z,8.23
2024-02-24T15:19:47.002Z,5.80
2024-02-24T15:22:17.547Z,6.47
2024-02-24T15:24:46.831Z,7.10
2024-02-24T15:27:13.774Z,6.20
2024-02-24T15:29:40.555Z,6.35
2024-02-24T15:32:07.683Z,7.10
2024-02-24T15:34:34.662Z,7.22
2024-02-24T15:37:01.360Z,8.02
2024-02-24T15:39:29.670Z,9.48
2024-02-24T15:41:56.486Z,15.70
2024-02-24T15:44:23.348Z,11.43
2024-02-24T15:46:49.934Z,6.85
2024-02-24T15:49:16.783Z,7.35
2024-02-24T15:51:43.494Z,6.20
2024-02-24T15:54:10.299Z,6.85
2024-02-24T15:56:38.554Z,7.13
2024-02-24T15:59:05.376Z,6.20
2024-02-24T16:01:32.222Z,7.00
2024-02-24T16:03:59.135Z,6.68
2024-02-24T16:06:26.060Z,6.35
2024-02-24T16:08:52.911Z,5.73
2024-02-24T16:11:19.752Z,6.25
2024-02-24T16:13:48.110Z,5.90
2024-02-24T16:16:15.041Z,5.70
2024-02-24T16:18:42.044Z,6.22
2024-02-24T16:21:10.683Z,6.07
2024-02-24T16:23:37.607Z,6.53
2024-02-24T16:26:04.703Z,6.80
2024-02-24T16:28:31.553Z,7.72
2024-02-24T16:30:59.793Z,7.90
2024-02-24T16:33:26.944Z,11.20
2024-02-24T16:35:53.727Z,13.65
2024-02-24T16:38:20.417Z,8.30
2024-02-24T16:40:47.271Z,7.50
2024-02-24T16:43:13.861Z,6.22
2024-02-24T16:45:40.636Z,6.80
2024-02-24T16:48:09.469Z,6.70
2024-02-24T16:50:36.268Z,7.70
2024-02-24T16:53:03.128Z,9.02
2024-02-24T16:55:29.808Z,8.25
2024-02-24T16:57:56.619Z,7.57
2024-02-24T17:00:27.389Z,8.82
2024-02-24T17:03:13.236Z,10.15
2024-02-24T17:05:40.646Z,8.20
2024-02-24T17:08:07.688Z,8.60
2024-02-24T17:10:34.239Z,9.37
2024-02-24T17:13:01.112Z,9.32
2024-02-24T17:15:27.748Z,7.15
2024-02-24T17:17:54.586Z,7.70
2024-02-24T17:20:22.657Z,8.60
2024-02-24T17:22:49.285Z,7.80
2024-02-24T17:25:16.101Z,6.50
2024-02-24T17:27:45.902Z,6.28
2024-02-24T17:30:14.738Z,7.72
2024-02-24T17:32:41.299Z,7.32
2024-02-24T17:35:08.491Z,8.60
2024-02-24T17:37:36.384Z,8.68
2024-02-24T17:40:03.157Z,7.15
2024-02-24T17:42:29.692Z,6.78
2024-02-24T17:44:56.271Z,7.13
2024-02-24T17:47:22.992Z,6.53
2024-02-24T17:49:49.655Z,7.30
2024-02-24T17:52:16.485Z,7.47
2024-02-24T17:54:44.487Z,7.53
2024-02-24T17:57:11.125Z,7.95
2024-02-24T17:59:37.726Z,7.93
2024-02-24T18:02:04.504Z,8.43
2024-02-24T18:04:31.310Z,9.55
2024-02-24T18:06:58.073Z,9.13
2024-02-24T18:09:24.707Z,9.27
2024-02-24T18:11:52.751Z,10.40
2024-02-24T18:14:19.416Z,10.07
2024-02-24T18:16:46.042Z,9.10
2024-02-24T18:19:12.755Z,7.80
2024-02-24T18:21:39.382Z,7.50
2024-02-24T18:24:06.460Z,7.27
2024-02-24T18:26:33.075Z,7.15
2024-02-24T18:29:03.387Z,6.80
2024-02-24T18:31:30.163Z,6.70
2024-02-24T18:33:57.192Z,7.55
2024-02-24T18:36:24.123Z,7.63
2024-02-24T18:38:50.669Z,7.28
2024-02-24T18:41:17.535Z,12.50
2024-02-24T18:43:44.621Z,13.68
2024-02-24T18:46:13.142Z,12.10
2024-02-24T18:48:39.975Z,14.33
2024-02-24T18:51:06.940Z,16.05
2024-02-24T18:56:59.957Z,12.93
2024-02-24T18:59:30.608Z,12.90
2024-02-24T19:01:58.940Z,14.47
2024-02-24T19:04:28.438Z,13.65
2024-02-24T19:06:55.159Z,14.05
2024-02-24T19:09:21.885Z,10.95
2024-02-24T19:11:48.758Z,13.10
2024-02-24T19:14:15.414Z,11.73
2024-02-24T19:16:42.101Z,12.38
2024-02-24T19:19:10.176Z,9.55
2024-02-24T19:21:39.900Z,21.98
2024-02-24T19:24:08.495Z,23.67
2024-02-24T19:26:36.259Z,15.73
2024-02-24T19:29:02.872Z,13.60
2024-02-24T19:31:29.506Z,11.32
2024-02-24T19:33:56.600Z,10.20
2024-02-24T19:36:24.916Z,10.13
2024-02-24T19:38:58.038Z,10.13
2024-02-24T19:41:28.827Z,9.75
2024-02-24T19:43:58.633Z,9.15
2024-02-24T19:46:25.390Z,9.40
2024-02-24T19:48:52.161Z,10.07
2024-02-24T19:51:19.009Z,23.80
2024-02-24T19:53:47.088Z,14.43
2024-02-24T19:56:13.901Z,16.35
2024-02-24T19:58:47.831Z,17.80
2024-02-24T20:01:21.317Z,12.82
2024-02-24T20:03:47.978Z,10.70
2024-02-24T20:06:14.770Z,11.27
2024-02-24T20:08:44.746Z,9.98
2024-02-24T20:11:12.938Z,11.35
2024-02-24T20:13:39.784Z,12.75
2024-02-24T20:16:09.252Z,12.80
2024-02-24T20:18:36.155Z,13.55
2024-02-24T20:21:03.190Z,13.68
2024-02-24T20:23:30.001Z,15.43
2024-02-24T20:25:57.040Z,20.67
2024-02-24T20:28:25.287Z,20.43
2024-02-24T20:30:52.015Z,16.10
2024-02-24T20:33:19.010Z,14.40
2024-02-24T20:35:45.988Z,10.40
2024-02-24T20:38:12.871Z,11.85
2024-02-24T20:40:39.611Z,16.03
2024-02-24T20:43:06.498Z,17.55
2024-02-24T20:45:34.652Z,21.05
2024-02-24T20:48:01.531Z,17.65
2024-02-24T20:50:28.289Z,24.65
2024-02-24T20:52:57.491Z,23.63
2024-02-24T20:55:24.798Z,22.15
2024-02-24T20:57:51.596Z,23.08
2024-02-24T21:00:19.002Z,22.40
2024-02-24T21:02:47.309Z,22.33
2024-02-24T21:05:14.419Z,22.63
2024-02-24T21:07:43.574Z,22.58
2024-02-24T21:13:34.661Z,20.85
2024-02-24T21:16:01.360Z,23.52
2024-02-24T21:18:30.976Z,23.23
2024-02-24T21:20:57.804Z,34.15
2024-02-24T21:23:24.536Z,46.17
2024-02-24T21:25:51.321Z,42.45
2024-02-24T21:28:18.268Z,47.60
2024-02-24T21:30:45.868Z,37.47
2024-02-24T21:33:13.145Z,32.50
2024-02-24T21:35:41.736Z,27.52
2024-02-24T21:38:08.553Z,24.77
2024-02-24T21:40:35.248Z,27.30
2024-02-24T21:43:04.870Z,25.27
2024-02-24T21:45:33.608Z,23.80
2024-02-24T21:48:03.248Z,22.85
2024-02-24T21:50:30.365Z,22.35
2024-02-24T21:52:59.942Z,21.48
2024-02-24T21:55:26.866Z,23.97
2024-02-24T21:57:54.046Z,22.60
2024-02-24T22:00:23.086Z,21.90
2024-02-24T22:02:49.952Z,20.27
2024-02-24T22:05:16.876Z,22.95
2024-02-24T22:07:45.780Z,21.53
2024-02-24T22:10:13.967Z,25.80
2024-02-24T22:12:40.638Z,23.08
2024-02-24T22:15:24.451Z,23.40
2024-02-24T22:17:51.782Z,24.60
2024-02-24T22:20:18.733Z,22.47
2024-02-24T22:22:47.922Z,22.90
2024-02-24T22:25:16.492Z,23.58
2024-02-24T22:27:44.272Z,25.13
2024-02-24T22:30:16.305Z,23.45
2024-02-24T22:32:47.354Z,25.97
2024-02-24T22:35:17.345Z,24.42
2024-02-24T22:37:48.990Z,22.88
2024-02-24T22:40:22.610Z,24.92
2024-02-24T22:42:49.540Z,23.67
2024-02-24T22:45:18.857Z,26.90
2024-02-24T22:48:01.265Z,24.17
2024-02-24T22:50:34.483Z,34.20
2024-02-24T22:53:07.442Z,33.05
2024-02-24T22:55:35.754Z,31.42
2024-02-24T22:58:02.897Z,58.30
2024-02-24T23:00:33.260Z,52.78
2024-02-24T23:03:02.100Z,86.03
2024-02-24T23:05:34.459Z,83.15
2024-02-24T23:08:01.504Z,75.65
2024-02-24T23:10:33.922Z,124.33
2024-02-24T23:27:09.613Z,74.70
2024-02-24T23:29:39.553Z,32.58
2024-02-24T23:32:10.958Z,46.40
2024-02-24T23:34:38.015Z,27.70
2024-02-24T23:37:05.125Z,24.17
2024-02-24T23:39:32.072Z,32.27
2024-02-24T23:41:59.496Z,52.92
2024-02-24T23:44:26.629Z,47.72
2024-02-24T23:46:55.615Z,42.65
2024-02-24T23:49:26.906Z,38.28
2024-02-24T23:52:01.166Z,39.10
2024-02-24T23:54:30.788Z,34.35
2024-02-24T23:56:57.945Z,32.03
2024-02-24T23:59:26.614Z,36.35
